Time;durP1;ratioP1;P1;durP2;ratioP2;P2;SDS_P1;SDS_P2;PMS_P1;PMS_P2;Temp;Humidity;BMP_temperature;BMP_pressure;BME280_temperature;BME280_humidity;BME280_pressure;Samples;Min_cycle;Max_cycle;Signal;HPM_P1;HPM_P2
2022/08/09 00:02:55;;;;;;;;;;;;;;;23.25;48.48;96286.22;10268295;28;1854;-70
2022/08/09 00:07:56;;;;;;;;;;;;;;;23.22;48.14;96288.66;10267481;28;2020;-70
2022/08/09 00:12:57;;;;;;;;;;;;;;;23.18;48.21;96290.28;10264397;28;1905;-70
2022/08/09 00:17:58;;;;;;;;;;;;;;;23.24;48.57;96284.66;10266176;28;1967;-70
2022/08/09 00:22:58;;;;;;;;;;;;;;;23.25;48.57;96288.09;10265811;28;2055;-69
2022/08/09 00:28:00;;;;;;;;;;;;;;;23.20;48.22;96291.59;10268382;28;1937;-70
2022/08/09 00:33:00;;;;;;;;;;;;;;;23.16;47.81;96297.69;10262419;28;1980;-71
2022/08/09 00:38:00;;;;;;;;;;;;;;;23.09;47.81;96290.06;10265571;28;2109;-70
2022/08/09 00:43:01;;;;;;;;;;;;;;;23.09;48.00;96292.72;10269470;28;1976;-70
2022/08/09 00:48:02;;;;;;;;;;;;;;;23.11;47.75;96293.22;10281528;28;2081;-70
2022/08/09 00:53:02;;;;;;;;;;;;;;;23.07;47.70;96288.75;10266320;28;2009;-70
2022/08/09 00:58:03;;;;;;;;;;;;;;;23.00;47.12;96286.44;10262154;28;2000;-70
2022/08/09 01:03:14;;;;;;;;;;;;;;;22.99;46.66;96287.50;10262940;28;1923;-71
2022/08/09 01:08:14;;;;;;;;;;;;;;;22.92;46.78;96292.31;10258587;28;1951;-71
2022/08/09 01:13:36;;;;;;;;;;;;;;;22.91;47.09;96289.94;10265580;28;2024;-71
2022/08/09 01:18:41;;;;;;;;;;;;;;;22.90;46.91;96298.91;10256599;28;2129;-71
2022/08/09 01:23:54;;;;;;;;;;;;;;;22.95;47.63;96293.63;10250116;28;2066;-70
2022/08/09 01:29:00;;;;;;;;;;;;;;;22.95;46.95;96293.63;10285059;28;2062;-71
2022/08/09 01:34:09;;;;;;;;;;;;;;;22.89;46.67;96292.06;10274726;28;1929;-71
2022/08/09 01:39:29;;;;;;;;;;;;;;;22.91;46.60;96289.94;10269480;28;1986;-71
2022/08/09 01:44:50;;;;;;;;;;;;;;;22.87;46.12;96295.00;10269106;28;2002;-70
2022/08/09 01:50:05;;;;;;;;;;;;;;;22.86;46.54;96293.41;10275753;28;1891;-71
2022/08/09 01:55:06;;;;;;;;;;;;;;;22.85;45.74;96296.34;10269491;28;2004;-71
2022/08/09 02:00:07;;;;;;;;;;;;;;;22.78;45.59;96291.34;10277837;28;1994;-71
2022/08/09 02:05:08;;;;;;;;;;;;;;;22.73;45.38;96301.16;10283364;28;1976;-71
2022/08/09 02:10:16;;;;;;;;;;;;;;;22.67;45.16;96298.53;10268715;28;2111;-71
2022/08/09 02:15:17;;;;;;;;;;;;;;;22.67;45.69;96305.69;10275599;28;1909;-71
2022/08/09 02:20:17;;;;;;;;;;;;;;;22.65;45.59;96308.59;10276424;28;1973;-71
2022/08/09 02:25:19;;;;;;;;;;;;;;;22.67;45.53;96309.13;10274207;28;2060;-71
2022/08/09 02:30:20;;;;;;;;;;;;;;;22.65;45.67;96305.97;10280036;28;1894;-70
2022/08/09 02:35:22;;;;;;;;;;;;;;;22.63;44.88;96309.94;10277464;28;2028;-70
2022/08/09 02:40:22;;;;;;;;;;;;;;;22.58;45.07;96320.53;10261212;28;2035;-71
2022/08/09 02:45:27;;;;;;;;;;;;;;;22.54;44.87;96307.06;10256008;28;1968;-70
2022/08/09 02:50:30;;;;;;;;;;;;;;;22.49;44.46;96315.00;10279687;28;1866;-71
2022/08/09 02:55:30;;;;;;;;;;;;;;;22.43;44.55;96316.09;10279678;28;1979;-71
2022/08/09 03:00:31;;;;;;;;;;;;;;;22.36;44.59;96310.31;10276533;28;1966;-71
2022/08/09 03:05:32;;;;;;;;;;;;;;;22.38;44.65;96310.06;10272476;28;1901;-70
2022/08/09 03:10:32;;;;;;;;;;;;;;;22.30;44.42;96315.88;10282036;28;1972;-71
2022/08/09 03:15:33;;;;;;;;;;;;;;;22.20;44.60;96298.22;10277489;28;1986;-70
2022/08/09 03:20:34;;;;;;;;;;;;;;;22.19;44.96;96301.94;10259717;28;2009;-71
2022/08/09 03:25:35;;;;;;;;;;;;;;;22.22;44.82;96288.19;10255392;28;1915;-71
2022/08/09 03:30:36;;;;;;;;;;;;;;;22.32;45.50;96300.53;10271236;28;2135;-71
2022/08/09 03:35:36;;;;;;;;;;;;;;;22.37;45.26;96311.91;10275221;28;1999;-71
2022/08/09 03:40:37;;;;;;;;;;;;;;;22.36;45.20;96320.09;10280923;28;2031;-72
2022/08/09 03:45:38;;;;;;;;;;;;;;;22.33;44.50;96313.50;10294147;28;2008;-71
2022/08/09 03:50:39;;;;;;;;;;;;;;;22.25;44.95;96316.69;10280869;28;1964;-71
2022/08/09 03:55:39;;;;;;;;;;;;;;;22.25;45.24;96315.91;10287073;28;1921;-71
2022/08/09 04:00:39;;;;;;;;;;;;;;;22.29;45.52;96330.16;10269712;28;2351;-70
2022/08/09 04:05:40;;;;;;;;;;;;;;;22.31;45.18;96335.94;10248356;28;1911;-71
2022/08/09 04:10:40;;;;;;;;;;;;;;;22.30;45.17;96332.50;10267012;28;2335;-70
2022/08/09 04:15:43;;;;;;;;;;;;;;;22.32;45.12;96335.66;10275313;28;2358;-70
2022/08/09 04:20:45;;;;;;;;;;;;;;;22.30;45.00;96329.88;10272813;28;2322;-70
2022/08/09 04:25:46;;;;;;;;;;;;;;;22.32;45.40;96335.66;10250116;28;2304;-71
2022/08/09 04:30:46;;;;;;;;;;;;;;;22.37;44.99;96340.94;10263897;28;2459;-71
2022/08/09 04:35:47;;;;;;;;;;;;;;;22.35;44.92;96343.06;10272957;28;2186;-71
2022/08/09 04:40:48;;;;;;;;;;;;;;;22.32;44.76;96342.81;10291009;28;2392;-69
2022/08/09 04:45:48;;;;;;;;;;;;;;;22.29;44.95;96346.78;10268332;28;1964;-70
2022/08/09 04:50:48;;;;;;;;;;;;;;;22.33;45.00;96358.41;10274789;28;1933;-70
2022/08/09 04:55:49;;;;;;;;;;;;;;;22.34;44.80;96359.19;10267660;28;2085;-70
2022/08/09 05:00:50;;;;;;;;;;;;;;;22.34;44.65;96359.97;10291354;28;1984;-70
2022/08/09 05:05:50;;;;;;;;;;;;;;;22.34;44.34;96364.47;10278025;28;2051;-70
2022/08/09 05:10:50;;;;;;;;;;;;;;;22.25;44.56;96366.09;10278031;28;1999;-71
2022/08/09 05:15:51;;;;;;;;;;;;;;;22.29;44.65;96365.28;10270756;28;1953;-72
2022/08/09 05:20:51;;;;;;;;;;;;;;;22.35;44.59;96371.31;10273475;28;2129;-72
2022/08/09 05:25:52;;;;;;;;;;;;;;;22.40;44.33;96373.97;10279983;28;1940;-72
2022/08/09 05:30:52;;;;;;;;;;;;;;;22.48;44.88;96376.81;10275966;28;1982;-73
2022/08/09 05:35:52;;;;;;;;;;;;;;;22.67;45.00;96381.53;10273707;28;2031;-72
2022/08/09 05:40:53;;;;;;;;;;;;;;;22.78;44.88;96380.41;10270105;28;1984;-72
2022/08/09 05:45:53;;;;;;;;;;;;;;;22.85;44.82;96381.72;10286187;28;1956;-73
2022/08/09 05:50:55;;;;;;;;;;;;;;;22.92;44.65;96381.41;10276639;28;1924;-72
2022/08/09 05:55:56;;;;;;;;;;;;;;;22.97;44.44;96378.72;10272031;28;2134;-72
2022/08/09 06:00:57;;;;;;;;;;;;;;;23.01;44.60;96380.56;10278537;28;1971;-72
2022/08/09 06:05:57;;;;;;;;;;;;;;;23.07;44.55;96386.59;10258435;28;1988;-73
2022/08/09 06:10:57;;;;;;;;;;;;;;;23.09;44.68;96379.97;10275181;28;1979;-73
2022/08/09 06:15:58;;;;;;;;;;;;;;;23.12;44.56;96384.72;10271414;28;1992;-72
2022/08/09 06:20:58;;;;;;;;;;;;;;;23.16;44.59;96384.97;10270500;28;1976;-72
2022/08/09 06:25:59;;;;;;;;;;;;;;;23.18;44.37;96385.50;10278322;28;1988;-72
2022/08/09 06:30:59;;;;;;;;;;;;;;;23.20;44.31;96389.44;10293004;28;1941;-72
2022/08/09 06:35:59;;;;;;;;;;;;;;;23.23;44.25;96388.06;10273620;28;1976;-73
2022/08/09 06:41:00;;;;;;;;;;;;;;;23.25;44.20;96392.03;10272567;28;2004;-72
2022/08/09 06:46:01;;;;;;;;;;;;;;;23.26;44.21;96392.84;10282203;28;1945;-73
2022/08/09 06:51:01;;;;;;;;;;;;;;;23.28;44.37;96390.69;10279141;28;2239;-72
2022/08/09 06:56:02;;;;;;;;;;;;;;;23.30;44.29;96392.00;10278720;28;1911;-72
2022/08/09 07:01:02;;;;;;;;;;;;;;;23.31;44.26;96393.59;10271201;28;1975;-72
2022/08/09 07:06:03;;;;;;;;;;;;;;;;;;10277581;28;1848;-73
2022/08/09 07:11:03;;;;;;;;;;;;;;;23.35;43.89;96402.56;10276941;28;1956;-72
2022/08/09 07:16:03;;;;;;;;;;;;;;;23.37;44.21;96395.16;10270506;28;1894;-71
2022/08/09 07:21:04;;;;;;;;;;;;;;;23.39;44.09;96408.91;10276357;28;1969;-72
2022/08/09 07:26:05;;;;;;;;;;;;;;;23.39;44.12;96403.59;10300701;28;1878;-73
2022/08/09 07:31:06;;;;;;;;;;;;;;;23.42;44.06;96407.56;10283845;28;1883;-72
2022/08/09 07:36:07;;;;;;;;;;;;;;;23.44;43.82;96410.72;10269380;28;1805;-72
2022/08/09 07:41:07;;;;;;;;;;;;;;;23.45;43.96;96404.38;10273571;28;1971;-71
2022/08/09 07:46:09;;;;;;;;;;;;;;;23.46;43.88;96411.25;10277166;28;1897;-72
2022/08/09 07:51:09;;;;;;;;;;;;;;;23.48;44.03;96416.25;10271759;28;1890;-72
2022/08/09 07:56:10;;;;;;;;;;;;;;;23.48;43.89;96417.03;10273501;28;1930;-72
2022/08/09 08:01:10;;;;;;;;;;;;;;;23.49;43.64;96434.50;10271778;28;1914;-72
2022/08/09 08:06:11;;;;;;;;;;;;;;;23.50;43.78;96428.13;10275786;28;1888;-72
2022/08/09 08:11:11;;;;;;;;;;;;;;;23.53;43.98;96434.75;10275113;28;1968;-72
2022/08/09 08:16:11;;;;;;;;;;;;;;;23.53;43.81;96427.59;10271482;28;1837;-72
2022/08/09 08:21:12;;;;;;;;;;;;;;;23.54;43.87;96429.16;10244802;28;1928;-72
2022/08/09 08:26:12;;;;;;;;;;;;;;;23.56;43.81;96434.19;10275463;28;1888;-73
2022/08/09 08:31:12;;;;;;;;;;;;;;;23.56;43.78;96439.47;10270155;28;1786;-72
2022/08/09 08:36:13;;;;;;;;;;;;;;;23.57;43.56;96431.28;10269547;28;1893;-73
2022/08/09 08:41:14;;;;;;;;;;;;;;;23.59;43.66;96439.72;10269859;28;1930;-72
2022/08/09 08:46:14;;;;;;;;;;;;;;;23.59;43.69;96439.72;10281850;28;1834;-73
2022/08/09 08:51:16;;;;;;;;;;;;;;;23.61;43.49;96440.25;10281396;28;1754;-72
2022/08/09 08:56:17;;;;;;;;;;;;;;;23.62;43.71;96430.47;10291643;28;1774;-73
2022/08/09 09:01:17;;;;;;;;;;;;;;;23.62;43.50;96438.41;10275306;28;1918;-73
2022/08/09 09:06:18;;;;;;;;;;;;;;;23.64;43.33;96431.72;10284067;28;1910;-72
2022/08/09 09:11:18;;;;;;;;;;;;;;;23.65;43.55;96428.03;10287459;28;1889;-73
2022/08/09 09:16:20;;;;;;;;;;;;;;;23.65;43.32;96419.31;10284250;28;1864;-72
2022/08/09 09:21:20;;;;;;;;;;;;;;;23.67;43.24;96431.19;10266680;28;1910;-72
2022/08/09 09:26:21;;;;;;;;;;;;;;;23.68;43.44;96427.47;10272926;28;1835;-73
2022/08/09 09:31:23;;;;;;;;;;;;;;;23.69;43.50;96415.03;10267996;28;1963;-73
2022/08/09 13:12:31;;;;;;;;;;;;;;;24.16;43.20;96356.88;10278619;28;1448;-72
2022/08/09 13:17:31;;;;;;;;;;;;;;;24.17;42.75;96351.28;10269719;28;1906;-73
2022/08/09 13:22:32;;;;;;;;;;;;;;;24.18;42.81;96373.28;10279970;28;1970;-72
2022/08/09 13:27:32;;;;;;;;;;;;;;;24.18;43.10;96357.38;10269080;28;1972;-72
2022/08/09 13:32:42;;;;;;;;;;;;;;;24.19;42.73;96358.97;10273038;28;1996;-71
2022/08/09 13:37:42;;;;;;;;;;;;;;;24.20;43.18;96360.53;10273054;28;2030;-71
2022/08/09 13:42:43;;;;;;;;;;;;;;;24.21;43.07;96351.53;10267037;28;2013;-72
2022/08/09 13:47:43;;;;;;;;;;;;;;;24.21;42.99;96351.53;10272553;28;2360;-72
2022/08/09 13:52:44;;;;;;;;;;;;;;;24.22;43.07;96343.31;10271324;28;2074;-72
2022/08/09 13:57:46;;;;;;;;;;;;;;;24.23;43.15;96352.06;10277650;28;1909;-73
2022/08/09 14:02:47;;;;;;;;;;;;;;;24.23;43.17;96347.50;10267094;28;2011;-72
2022/08/09 14:07:48;;;;;;;;;;;;;;;24.24;43.22;96354.41;10270420;28;1814;-72
2022/08/09 14:12:48;;;;;;;;;;;;;;;24.23;43.07;96350.16;10272726;28;2995;-72
2022/08/09 14:17:48;;;;;;;;;;;;;;;24.24;43.19;96351.75;10272252;28;1973;-72
2022/08/09 14:22:49;;;;;;;;;;;;;;;24.24;43.13;96341.16;10272611;28;1807;-72
2022/08/09 14:27:50;;;;;;;;;;;;;;;24.26;43.08;96338.22;10267618;28;2188;-72
2022/08/09 14:32:53;;;;;;;;;;;;;;;24.24;42.98;96351.75;10274787;28;1986;-72
2022/08/09 14:37:53;;;;;;;;;;;;;;;24.27;43.18;96353.06;10275363;28;1903;-73
2022/08/09 14:42:53;;;;;;;;;;;;;;;24.26;43.11;96354.13;10272337;28;2008;-72
2022/08/09 14:47:54;;;;;;;;;;;;;;;24.27;43.10;96345.13;10270659;28;1825;-72
2022/08/09 14:52:54;;;;;;;;;;;;;;;24.29;43.24;96355.41;10272308;28;1876;-72
2022/08/09 14:57:54;;;;;;;;;;;;;;;24.29;43.12;96336.88;10275661;28;1962;-72
2022/08/09 15:02:55;;;;;;;;;;;;;;;24.28;43.11;96341.38;10272150;28;1829;-72
2022/08/09 15:07:55;;;;;;;;;;;;;;;24.29;43.16;96334.22;10272572;28;1821;-71
2022/08/09 15:12:55;;;;;;;;;;;;;;;24.28;43.30;96325.47;10271006;28;1849;-72
2022/08/09 15:17:55;;;;;;;;;;;;;;;24.28;43.34;96327.38;10267260;28;1936;-72
2022/08/09 15:22:56;;;;;;;;;;;;;;;24.28;43.13;96330.78;10268874;28;1813;-72
2022/08/09 15:27:56;;;;;;;;;;;;;;;24.29;43.17;96328.94;10271293;28;1812;-72
2022/08/09 15:32:56;;;;;;;;;;;;;;;24.29;43.17;96320.97;10270993;28;1959;-72
2022/08/09 15:37:57;;;;;;;;;;;;;;;24.30;43.15;96322.56;10271050;28;1914;-72
2022/08/09 15:42:58;;;;;;;;;;;;;;;24.30;43.35;96317.28;10269649;28;1861;-72
2022/08/09 15:47:58;;;;;;;;;;;;;;;24.30;43.04;96317.28;10273425;28;1852;-74
2022/08/09 15:52:59;;;;;;;;;;;;;;;24.29;42.97;96324.41;10280362;28;1811;-73
2022/08/09 15:57:59;;;;;;;;;;;;;;;24.30;43.08;96319.91;10277028;28;1911;-72
2022/08/09 16:03:00;;;;;;;;;;;;;;;24.31;43.21;96318.84;10268365;28;1949;-72
2022/08/09 16:08:00;;;;;;;;;;;;;;;24.31;43.13;96318.84;10269144;28;1794;-72
2022/08/09 16:13:02;;;;;;;;;;;;;;;24.31;43.08;96324.94;10276099;28;1913;-72
2022/08/09 16:18:03;;;;;;;;;;;;;;;24.30;42.94;96317.28;10273134;28;1970;-73
2022/08/09 16:23:03;;;;;;;;;;;;;;;24.31;42.94;96318.84;10274967;28;1846;-73
2022/08/09 16:28:04;;;;;;;;;;;;;;;24.29;43.03;96313.81;10272209;28;1869;-73
2022/08/09 16:33:07;;;;;;;;;;;;;;;24.31;42.79;96316.97;10264493;28;1829;-73
2022/08/09 16:38:07;;;;;;;;;;;;;;;24.32;43.16;96317.78;10272390;28;1902;-72
2022/08/09 16:43:10;;;;;;;;;;;;;;;24.32;43.19;96318.53;10270725;28;1798;-72
2022/08/09 16:48:11;;;;;;;;;;;;;;;24.32;43.23;96315.13;10269009;28;1766;-72
2022/08/09 16:53:11;;;;;;;;;;;;;;;24.32;43.09;96315.88;10277157;28;1900;-72
2022/08/09 16:58:13;;;;;;;;;;;;;;;24.33;43.15;96316.69;10281721;28;1972;-72
2022/08/09 17:03:13;;;;;;;;;;;;;;;24.34;42.95;96307.69;10272028;28;1876;-72
2022/08/09 17:08:13;;;;;;;;;;;;;;;24.33;43.23;96314.03;10283132;28;1834;-72
2022/08/09 17:13:14;;;;;;;;;;;;;;;24.33;42.83;96322.78;10269175;28;1774;-72
2022/08/09 17:18:15;;;;;;;;;;;;;;;24.33;42.97;96322.00;10266162;28;1981;-72
2022/08/09 17:23:15;;;;;;;;;;;;;;;24.32;42.95;96320.44;10279188;28;1735;-71
2022/08/09 17:28:15;;;;;;;;;;;;;;;24.33;43.14;96335.25;10279247;28;1770;-73
2022/08/09 17:33:16;;;;;;;;;;;;;;;24.33;43.20;96338.69;10276009;28;1873;-71
2022/08/09 17:38:16;;;;;;;;;;;;;;;24.34;43.14;96334.19;10279300;28;1914;-71
2022/08/09 17:43:19;;;;;;;;;;;;;;;24.35;43.12;96330.44;10273569;28;1865;-72
2022/08/09 17:48:19;;;;;;;;;;;;;;;24.34;43.23;96332.28;10276598;28;2024;-72
2022/08/09 17:53:20;;;;;;;;;;;;;;;24.34;43.00;96339.47;10275956;28;1841;-72
2022/08/09 17:58:20;;;;;;;;;;;;;;;24.35;42.96;96343.69;10278629;28;1910;-71
2022/08/09 18:03:21;;;;;;;;;;;;;;;24.35;43.05;96343.69;10275884;28;1862;-72
2022/08/09 18:08:23;;;;;;;;;;;;;;;24.35;43.26;96343.69;10272660;28;1785;-71
2022/08/09 18:13:24;;;;;;;;;;;;;;;24.34;43.26;96348.19;10259472;28;1903;-71
2022/08/09 18:18:24;;;;;;;;;;;;;;;24.35;43.16;96362.25;10279849;28;1918;-71
2022/08/09 18:23:24;;;;;;;;;;;;;;;24.34;43.04;96364.09;10274975;28;1897;-72
2022/08/09 18:28:29;;;;;;;;;;;;;;;24.36;42.85;96358.53;10274936;28;1849;-71
2022/08/09 18:33:29;;;;;;;;;;;;;;;24.36;43.24;96366.47;10291703;28;1845;-71
2022/08/09 18:38:31;;;;;;;;;;;;;;;24.34;43.02;96364.09;10280521;28;1894;-72
2022/08/09 18:43:32;;;;;;;;;;;;;;;24.34;43.26;96372.03;10275425;28;1865;-72
2022/08/09 18:48:33;;;;;;;;;;;;;;;24.36;42.97;96374.44;10279938;28;1774;-71
2022/08/09 18:53:33;;;;;;;;;;;;;;;24.35;42.81;96383.44;10277621;28;1825;-72
2022/08/09 18:58:34;;;;;;;;;;;;;;;24.35;42.84;96383.44;10279613;28;1981;-71
2022/08/09 19:03:34;;;;;;;;;;;;;;;24.34;42.89;96389.81;10281929;28;1820;-71
2022/08/09 19:08:35;;;;;;;;;;;;;;;24.35;42.94;96394.03;10270117;28;1891;-72
2022/08/09 19:13:36;;;;;;;;;;;;;;;24.36;43.06;96392.97;10291475;28;1774;-71
2022/08/09 19:18:37;;;;;;;;;;;;;;;24.14;40.00;96404.06;10252581;28;1910;-70
2022/08/09 19:23:37;;;;;;;;;;;;;;;23.94;38.84;96412.16;10269611;28;1805;-70
2022/08/09 19:28:38;;;;;;;;;;;;;;;23.81;38.53;96410.16;10273850;28;1849;-71
2022/08/09 19:33:39;;;;;;;;;;;;;;;23.70;38.18;96411.34;10249655;28;3088;-70
2022/08/09 19:38:41;;;;;;;;;;;;;;;23.64;38.06;96410.56;10274696;28;1902;-71
2022/08/09 19:43:41;;;;;;;;;;;;;;;23.60;38.06;96398.94;10269142;28;1841;-71
2022/08/09 19:48:42;;;;;;;;;;;;;;;23.57;37.97;96402.16;10255715;28;2124;-71
2022/08/09 19:53:43;;;;;;;;;;;;;;;23.56;38.26;96416.44;10278144;28;1787;-72
2022/08/09 19:58:43;;;;;;;;;;;;;;;23.53;37.91;96417.03;10266982;28;1906;-71
2022/08/09 20:03:43;;;;;;;;;;;;;;;23.52;37.82;96420.72;10277899;28;1822;-72
2022/08/09 20:08:44;;;;;;;;;;;;;;;23.49;37.74;96423.94;10270314;28;1861;-71
2022/08/09 20:13:44;;;;;;;;;;;;;;;23.45;37.56;96420.25;10269378;28;2010;-72
2022/08/09 20:18:45;;;;;;;;;;;;;;;23.43;37.74;96428.44;10265174;28;2056;-71
2022/08/09 20:23:45;;;;;;;;;;;;;;;23.42;37.85;96421.59;10263088;28;2081;-69
2022/08/09 20:28:46;;;;;;;;;;;;;;;23.40;37.84;96420.28;10263178;28;1929;-69
2022/08/09 20:33:46;;;;;;;;;;;;;;;23.43;37.70;96425.03;10258205;28;2054;-70
2022/08/09 20:38:48;;;;;;;;;;;;;;;23.40;37.62;96431.66;10271807;28;1975;-70
2022/08/09 20:43:48;;;;;;;;;;;;;;;23.37;37.62;96426.91;10265314;28;2034;-69
2022/08/09 20:48:48;;;;;;;;;;;;;;;23.31;37.50;96424.53;10271267;28;2060;-70
2022/08/09 20:53:49;;;;;;;;;;;;;;;23.29;37.45;96437.25;10271157;28;2001;-70
2022/08/09 20:58:52;;;;;;;;;;;;;;;23.25;37.57;96433.56;10272295;28;2126;-69
2022/08/09 21:03:53;;;;;;;;;;;;;;;23.25;37.25;96444.16;10269108;28;1918;-69
2022/08/09 21:08:55;;;;;;;;;;;;;;;23.21;37.51;96448.41;10287382;28;2121;-69
2022/08/09 21:13:55;;;;;;;;;;;;;;;23.19;37.73;96440.75;10272403;28;1912;-69
2022/08/09 21:18:57;;;;;;;;;;;;;;;23.18;37.74;96438.38;10262640;28;1961;-70
2022/08/09 21:23:58;;;;;;;;;;;;;;;23.17;37.80;96434.13;10265564;28;1995;-70
2022/08/09 21:28:58;;;;;;;;;;;;;;;23.13;37.92;96431.25;10272417;28;1968;-69
2022/08/09 21:33:58;;;;;;;;;;;;;;;23.12;38.11;96423.59;10270598;28;1952;-70
2022/08/09 21:39:01;;;;;;;;;;;;;;;23.08;38.15;96431.28;10268584;28;1927;-70
2022/08/09 21:44:01;;;;;;;;;;;;;;;23.07;37.98;96432.34;10272427;28;1987;-70
2022/08/09 21:49:02;;;;;;;;;;;;;;;22.98;38.36;96435.84;10276618;28;1976;-69
2022/08/09 21:54:02;;;;;;;;;;;;;;;22.93;38.51;96438.50;10277950;28;2060;-69
2022/08/09 21:59:03;;;;;;;;;;;;;;;22.85;38.33;96437.22;10277329;28;1911;-70
2022/08/09 22:04:03;;;;;;;;;;;;;;;22.82;38.55;96434.31;10282844;28;1931;-69
2022/08/09 22:09:04;;;;;;;;;;;;;;;22.77;38.78;96440.44;10276747;28;2041;-70
2022/08/09 22:14:04;;;;;;;;;;;;;;;22.75;39.07;96431.19;10279720;28;2349;-70
2022/08/09 22:19:05;;;;;;;;;;;;;;;22.79;39.00;96435.66;10286337;28;1973;-70
2022/08/09 22:24:06;;;;;;;;;;;;;;;22.83;38.95;96433.28;10279676;28;2098;-70
2022/08/09 22:29:07;;;;;;;;;;;;;;;22.83;39.02;96426.13;10278960;28;1988;-70
2022/08/09 22:34:07;;;;;;;;;;;;;;;22.78;39.40;96426.16;10277810;28;1999;-70
2022/08/09 22:39:08;;;;;;;;;;;;;;;22.78;39.39;96428.78;10280317;28;2061;-69
2022/08/09 22:44:08;;;;;;;;;;;;;;;22.74;39.63;96416.38;10277493;28;2108;-69
2022/08/09 22:49:12;;;;;;;;;;;;;;;22.75;39.50;96413.47;10289483;28;1696;-70
2022/08/09 22:54:12;;;;;;;;;;;;;;;22.72;39.45;96407.94;10265741;28;1963;-69
2022/08/09 22:59:13;;;;;;;;;;;;;;;22.70;39.87;96410.06;10279820;28;1972;-70
2022/08/09 23:04:13;;;;;;;;;;;;;;;22.72;39.82;96394.72;10275761;28;2015;-70
2022/08/09 23:09:14;;;;;;;;;;;;;;;22.72;39.86;96402.66;10279989;28;1942;-70
2022/08/09 23:14:16;;;;;;;;;;;;;;;22.67;39.86;96384.94;10277602;28;2012;-70
2022/08/09 23:19:16;;;;;;;;;;;;;;;22.62;39.86;96388.44;10269929;28;1992;-69
2022/08/09 23:24:17;;;;;;;;;;;;;;;22.65;40.03;96381.78;10271109;28;2029;-71
2022/08/09 23:29:17;;;;;;;;;;;;;;;22.65;39.76;96387.06;10275778;28;2035;-71
2022/08/09 23:34:18;;;;;;;;;;;;;;;22.67;39.90;96393.69;10271520;28;1925;-70
2022/08/09 23:39:18;;;;;;;;;;;;;;;22.60;39.84;96390.56;10274789;28;2265;-69
2022/08/09 23:44:20;;;;;;;;;;;;;;;22.58;39.96;96383.97;10274365;28;2249;-69
2022/08/09 23:49:20;;;;;;;;;;;;;;;22.51;40.03;96391.34;10280540;28;2261;-71
2022/08/09 23:54:22;;;;;;;;;;;;;;;22.46;40.31;96384.22;10284019;28;2309;-72
